sensor_id;sensor_type;location;lat;lon;timestamp;P1;durP1;ratioP1;P2;durP2;ratioP2
70301;SDS011;57706;56.326;43.882;2023-04-02T00:07:42;10.63;;;5.85;;
70301;SDS011;57706;56.326;43.882;2023-04-02T00:13:03;11.38;;;5.75;;
70301;SDS011;57706;56.326;43.882;2023-04-02T00:15:30;11.15;;;6.10;;
70301;SDS011;57706;56.326;43.882;2023-04-02T00:17:57;11.52;;;6.00;;
70301;SDS011;57706;56.326;43.882;2023-04-02T00:20:24;11.15;;;5.93;;
70301;SDS011;57706;56.326;43.882;2023-04-02T00:22:52;8.88;;;5.57;;
70301;SDS011;57706;56.326;43.882;2023-04-02T00:25:18;11.05;;;6.25;;
70301;SDS011;57706;56.326;43.882;2023-04-02T00:27:44;10.38;;;6.68;;
70301;SDS011;57706;56.326;43.882;2023-04-02T00:30:11;10.88;;;6.80;;
70301;SDS011;57706;56.326;43.882;2023-04-02T00:32:38;11.32;;;6.72;;
70301;SDS011;57706;56.326;43.882;2023-04-02T00:35:11;11.40;;;6.30;;
70301;SDS011;57706;56.326;43.882;2023-04-02T00:37:43;10.63;;;6.50;;
70301;SDS011;57706;56.326;43.882;2023-04-02T00:40:19;10.95;;;6.63;;
70301;SDS011;57706;56.326;43.882;2023-04-02T00:42:49;11.18;;;6.65;;
70301;SDS011;57706;56.326;43.882;2023-04-02T00:45:28;11.60;;;6.70;;
70301;SDS011;57706;56.326;43.882;2023-04-02T00:47:57;11.13;;;7.00;;
70301;SDS011;57706;56.326;43.882;2023-04-02T00:50:41;11.40;;;6.10;;
70301;SDS011;57706;56.326;43.882;2023-04-02T00:55:47;10.07;;;6.03;;
70301;SDS011;57706;56.326;43.882;2023-04-02T00:58:22;14.27;;;5.95;;
70301;SDS011;57706;56.326;43.882;2023-04-02T01:00:52;11.38;;;6.53;;
70301;SDS011;57706;56.326;43.882;2023-04-02T01:05:45;11.13;;;6.28;;
70301;SDS011;57706;56.326;43.882;2023-04-02T01:15:50;7.97;;;5.47;;
70301;SDS011;57706;56.326;43.882;2023-04-02T01:18:34;10.32;;;6.40;;
70301;SDS011;57706;56.326;43.882;2023-04-02T01:26:52;9.20;;;5.80;;
70301;SDS011;57706;56.326;43.882;2023-04-02T01:31:59;8.43;;;5.28;;
70301;SDS011;57706;56.326;43.882;2023-04-02T01:34:30;12.95;;;6.40;;
70301;SDS011;57706;56.326;43.882;2023-04-02T01:45:21;10.57;;;6.05;;
70301;SDS011;57706;56.326;43.882;2023-04-02T01:47:48;10.50;;;5.85;;
70301;SDS011;57706;56.326;43.882;2023-04-02T01:50:26;11.38;;;6.50;;
70301;SDS011;57706;56.326;43.882;2023-04-02T01:53:04;11.05;;;6.28;;
70301;SDS011;57706;56.326;43.882;2023-04-02T01:57:59;10.18;;;6.28;;
70301;SDS011;57706;56.326;43.882;2023-04-02T02:00:27;11.88;;;6.25;;
70301;SDS011;57706;56.326;43.882;2023-04-02T02:02:55;13.40;;;6.93;;
70301;SDS011;57706;56.326;43.882;2023-04-02T02:05:23;10.98;;;7.22;;
70301;SDS011;57706;56.326;43.882;2023-04-02T02:07:51;12.18;;;7.72;;
70301;SDS011;57706;56.326;43.882;2023-04-02T02:10:26;12.80;;;6.80;;
70301;SDS011;57706;56.326;43.882;2023-04-02T02:13:04;11.45;;;7.00;;
70301;SDS011;57706;56.326;43.882;2023-04-02T02:15:31;9.82;;;6.32;;
70301;SDS011;57706;56.326;43.882;2023-04-02T02:18:01;12.73;;;7.07;;
70301;SDS011;57706;56.326;43.882;2023-04-02T02:20:29;13.20;;;7.07;;
70301;SDS011;57706;56.326;43.882;2023-04-02T02:22:57;11.27;;;7.38;;
70301;SDS011;57706;56.326;43.882;2023-04-02T02:25:26;11.13;;;6.85;;
70301;SDS011;57706;56.326;43.882;2023-04-02T02:30:35;11.75;;;7.00;;
70301;SDS011;57706;56.326;43.882;2023-04-02T02:33:19;11.75;;;6.68;;
70301;SDS011;57706;56.326;43.882;2023-04-02T02:35:58;9.63;;;6.65;;
70301;SDS011;57706;56.326;43.882;2023-04-02T02:41:48;11.15;;;7.13;;
70301;SDS011;57706;56.326;43.882;2023-04-02T02:46:39;11.73;;;7.05;;
70301;SDS011;57706;56.326;43.882;2023-04-02T02:51:53;12.65;;;7.45;;
70301;SDS011;57706;56.326;43.882;2023-04-02T02:54:31;11.00;;;7.65;;
70301;SDS011;57706;56.326;43.882;2023-04-02T02:57:00;14.13;;;7.65;;
70301;SDS011;57706;56.326;43.882;2023-04-02T02:59:29;12.75;;;7.90;;
70301;SDS011;57706;56.326;43.882;2023-04-02T03:01:56;16.42;;;9.23;;
70301;SDS011;57706;56.326;43.882;2023-04-02T03:04:23;15.40;;;8.93;;
70301;SDS011;57706;56.326;43.882;2023-04-02T03:06:52;15.88;;;8.48;;
70301;SDS011;57706;56.326;43.882;2023-04-02T03:12:42;13.88;;;8.13;;
70301;SDS011;57706;56.326;43.882;2023-04-02T03:20:52;12.25;;;7.85;;
70301;SDS011;57706;56.326;43.882;2023-04-02T03:23:38;16.33;;;8.73;;
70301;SDS011;57706;56.326;43.882;2023-04-02T03:28:51;14.68;;;7.95;;
70301;SDS011;57706;56.326;43.882;2023-04-02T03:31:40;16.10;;;9.70;;
70301;SDS011;57706;56.326;43.882;2023-04-02T03:34:17;18.90;;;10.73;;
70301;SDS011;57706;56.326;43.882;2023-04-02T03:36:53;18.85;;;11.70;;
70301;SDS011;57706;56.326;43.882;2023-04-02T03:41:57;19.55;;;9.95;;
70301;SDS011;57706;56.326;43.882;2023-04-02T03:44:50;16.70;;;9.23;;
70301;SDS011;57706;56.326;43.882;2023-04-02T03:49:58;15.52;;;8.57;;
70301;SDS011;57706;56.326;43.882;2023-04-02T03:52:32;14.40;;;9.02;;
70301;SDS011;57706;56.326;43.882;2023-04-02T03:55:02;14.32;;;8.27;;
70301;SDS011;57706;56.326;43.882;2023-04-02T04:00:32;14.23;;;8.18;;
70301;SDS011;57706;56.326;43.882;2023-04-02T04:03:11;12.40;;;7.90;;
70301;SDS011;57706;56.326;43.882;2023-04-02T04:05:48;11.90;;;7.28;;
70301;SDS011;57706;56.326;43.882;2023-04-02T04:08:21;18.45;;;9.00;;
70301;SDS011;57706;56.326;43.882;2023-04-02T04:10:51;13.95;;;8.65;;
70301;SDS011;57706;56.326;43.882;2023-04-02T04:13:23;16.23;;;8.05;;
70301;SDS011;57706;56.326;43.882;2023-04-02T04:18:25;14.10;;;8.80;;
70301;SDS011;57706;56.326;43.882;2023-04-02T04:21:04;16.10;;;8.35;;
70301;SDS011;57706;56.326;43.882;2023-04-02T04:23:39;13.43;;;8.77;;
70301;SDS011;57706;56.326;43.882;2023-04-02T04:26:16;12.55;;;7.85;;
70301;SDS011;57706;56.326;43.882;2023-04-02T04:31:45;15.57;;;8.18;;
70301;SDS011;57706;56.326;43.882;2023-04-02T04:34:13;12.15;;;8.13;;
70301;SDS011;57706;56.326;43.882;2023-04-02T04:36:47;13.43;;;8.30;;
70301;SDS011;57706;56.326;43.882;2023-04-02T04:39:25;13.32;;;8.60;;
70301;SDS011;57706;56.326;43.882;2023-04-02T04:47:23;11.80;;;7.72;;
70301;SDS011;57706;56.326;43.882;2023-04-02T04:50:20;15.20;;;7.75;;
70301;SDS011;57706;56.326;43.882;2023-04-02T04:52:50;12.52;;;7.88;;
70301;SDS011;57706;56.326;43.882;2023-04-02T04:57:50;13.02;;;8.23;;
70301;SDS011;57706;56.326;43.882;2023-04-02T05:05:44;13.13;;;7.40;;
70301;SDS011;57706;56.326;43.882;2023-04-02T05:08:13;12.80;;;7.07;;
70301;SDS011;57706;56.326;43.882;2023-04-02T05:10:48;15.43;;;7.55;;
70301;SDS011;57706;56.326;43.882;2023-04-02T05:13:21;12.70;;;6.63;;
70301;SDS011;57706;56.326;43.882;2023-04-02T05:18:40;15.55;;;7.80;;
70301;SDS011;57706;56.326;43.882;2023-04-02T05:24:16;15.63;;;7.82;;
70301;SDS011;57706;56.326;43.882;2023-04-02T05:27:35;12.65;;;6.40;;
70301;SDS011;57706;56.326;43.882;2023-04-02T05:30:00;12.75;;;7.78;;
70301;SDS011;57706;56.326;43.882;2023-04-02T05:32:36;9.95;;;6.68;;
70301;SDS011;57706;56.326;43.882;2023-04-02T05:35:12;11.88;;;6.72;;
70301;SDS011;57706;56.326;43.882;2023-04-02T05:37:41;10.82;;;6.50;;
70301;SDS011;57706;56.326;43.882;2023-04-02T05:40:18;11.55;;;6.57;;
70301;SDS011;57706;56.326;43.882;2023-04-02T05:42:49;13.20;;;6.70;;
70301;SDS011;57706;56.326;43.882;2023-04-02T05:48:03;11.13;;;7.30;;
70301;SDS011;57706;56.326;43.882;2023-04-02T05:50:40;12.57;;;8.02;;
70301;SDS011;57706;56.326;43.882;2023-04-02T05:53:35;12.35;;;8.00;;
70301;SDS011;57706;56.326;43.882;2023-04-02T05:58:50;13.25;;;8.02;;
70301;SDS011;57706;56.326;43.882;2023-04-02T06:01:43;15.52;;;8.15;;
70301;SDS011;57706;56.326;43.882;2023-04-02T06:04:40;12.15;;;7.85;;
70301;SDS011;57706;56.326;43.882;2023-04-02T06:10:04;13.27;;;8.38;;
70301;SDS011;57706;56.326;43.882;2023-04-02T06:12:40;15.98;;;8.75;;
70301;SDS011;57706;56.326;43.882;2023-04-02T06:15:11;14.65;;;8.27;;
70301;SDS011;57706;56.326;43.882;2023-04-02T06:17:47;12.75;;;7.25;;
70301;SDS011;57706;56.326;43.882;2023-04-02T06:20:18;15.95;;;7.95;;
70301;SDS011;57706;56.326;43.882;2023-04-02T06:22:50;12.35;;;7.28;;
70301;SDS011;57706;56.326;43.882;2023-04-02T06:27:49;12.13;;;7.22;;
70301;SDS011;57706;56.326;43.882;2023-04-02T06:30:23;10.93;;;7.00;;
70301;SDS011;57706;56.326;43.882;2023-04-02T06:32:56;18.55;;;7.80;;
70301;SDS011;57706;56.326;43.882;2023-04-02T06:35:23;14.02;;;8.35;;
70301;SDS011;57706;56.326;43.882;2023-04-02T06:38:01;14.00;;;7.60;;
70301;SDS011;57706;56.326;43.882;2023-04-02T06:43:46;12.30;;;7.13;;
70301;SDS011;57706;56.326;43.882;2023-04-02T06:46:44;11.50;;;7.00;;
70301;SDS011;57706;56.326;43.882;2023-04-02T06:51:51;15.93;;;7.65;;
70301;SDS011;57706;56.326;43.882;2023-04-02T06:54:19;11.57;;;6.70;;
70301;SDS011;57706;56.326;43.882;2023-04-02T06:59:28;15.77;;;9.20;;
70301;SDS011;57706;56.326;43.882;2023-04-02T07:02:03;13.65;;;7.43;;
70301;SDS011;57706;56.326;43.882;2023-04-02T07:04:41;18.88;;;8.48;;
70301;SDS011;57706;56.326;43.882;2023-04-02T07:07:07;12.80;;;8.15;;
70301;SDS011;57706;56.326;43.882;2023-04-02T07:09:36;15.75;;;8.82;;
70301;SDS011;57706;56.326;43.882;2023-04-02T07:12:10;16.02;;;9.85;;
70301;SDS011;57706;56.326;43.882;2023-04-02T07:14:37;14.80;;;8.00;;
70301;SDS011;57706;56.326;43.882;2023-04-02T07:17:03;23.50;;;8.15;;
70301;SDS011;57706;56.326;43.882;2023-04-02T07:19:29;12.48;;;7.93;;
70301;SDS011;57706;56.326;43.882;2023-04-02T07:21:57;12.73;;;7.85;;
70301;SDS011;57706;56.326;43.882;2023-04-02T07:24:28;15.60;;;7.47;;
70301;SDS011;57706;56.326;43.882;2023-04-02T07:26:54;12.45;;;7.80;;
70301;SDS011;57706;56.326;43.882;2023-04-02T07:29:20;14.02;;;6.78;;
70301;SDS011;57706;56.326;43.882;2023-04-02T07:31:46;14.25;;;7.57;;
70301;SDS011;57706;56.326;43.882;2023-04-02T07:34:12;13.27;;;6.90;;
70301;SDS011;57706;56.326;43.882;2023-04-02T07:36:37;14.68;;;7.47;;
70301;SDS011;57706;56.326;43.882;2023-04-02T07:39:03;15.77;;;7.32;;
70301;SDS011;57706;56.326;43.882;2023-04-02T07:41:29;14.15;;;7.32;;
70301;SDS011;57706;56.326;43.882;2023-04-02T07:43:55;10.63;;;6.65;;
70301;SDS011;57706;56.326;43.882;2023-04-02T07:46:21;11.18;;;6.85;;
70301;SDS011;57706;56.326;43.882;2023-04-02T07:48:47;11.75;;;6.30;;
70301;SDS011;57706;56.326;43.882;2023-04-02T07:51:13;14.82;;;6.90;;
70301;SDS011;57706;56.326;43.882;2023-04-02T07:53:50;13.80;;;8.30;;
70301;SDS011;57706;56.326;43.882;2023-04-02T07:56:20;11.63;;;7.53;;
70301;SDS011;57706;56.326;43.882;2023-04-02T07:58:47;14.43;;;7.88;;
70301;SDS011;57706;56.326;43.882;2023-04-02T08:01:21;10.02;;;6.72;;
70301;SDS011;57706;56.326;43.882;2023-04-02T08:03:54;13.10;;;8.00;;
70301;SDS011;57706;56.326;43.882;2023-04-02T08:06:22;12.05;;;6.72;;
70301;SDS011;57706;56.326;43.882;2023-04-02T08:08:49;17.42;;;6.00;;
70301;SDS011;57706;56.326;43.882;2023-04-02T08:11:15;9.02;;;5.60;;
70301;SDS011;57706;56.326;43.882;2023-04-02T08:13:41;13.07;;;6.75;;
70301;SDS011;57706;56.326;43.882;2023-04-02T08:16:08;11.23;;;6.65;;
70301;SDS011;57706;56.326;43.882;2023-04-02T08:18:34;13.82;;;7.45;;
70301;SDS011;57706;56.326;43.882;2023-04-02T08:21:01;10.48;;;5.63;;
70301;SDS011;57706;56.326;43.882;2023-04-02T08:23:30;11.50;;;5.43;;
70301;SDS011;57706;56.326;43.882;2023-04-02T08:25:56;16.98;;;7.20;;
70301;SDS011;57706;56.326;43.882;2023-04-02T08:28:22;20.67;;;7.80;;
70301;SDS011;57706;56.326;43.882;2023-04-02T08:30:48;9.65;;;5.90;;
70301;SDS011;57706;56.326;43.882;2023-04-02T08:33:14;10.05;;;5.57;;
70301;SDS011;57706;56.326;43.882;2023-04-02T08:35:43;10.63;;;5.63;;
70301;SDS011;57706;56.326;43.882;2023-04-02T08:38:15;10.70;;;5.68;;
70301;SDS011;57706;56.326;43.882;2023-04-02T08:40:43;13.18;;;6.53;;
70301;SDS011;57706;56.326;43.882;2023-04-02T08:43:14;12.73;;;6.43;;
70301;SDS011;57706;56.326;43.882;2023-04-02T08:45:54;14.73;;;6.82;;
70301;SDS011;57706;56.326;43.882;2023-04-02T08:48:29;10.02;;;6.40;;
70301;SDS011;57706;56.326;43.882;2023-04-02T08:50:58;12.85;;;6.50;;
70301;SDS011;57706;56.326;43.882;2023-04-02T08:53:36;18.00;;;7.00;;
70301;SDS011;57706;56.326;43.882;2023-04-02T09:04:20;10.35;;;6.30;;
70301;SDS011;57706;56.326;43.882;2023-04-02T09:06:49;15.55;;;7.80;;
70301;SDS011;57706;56.326;43.882;2023-04-02T09:09:17;15.25;;;7.25;;
70301;SDS011;57706;56.326;43.882;2023-04-02T09:14:14;13.98;;;7.32;;
70301;SDS011;57706;56.326;43.882;2023-04-02T09:16:43;13.02;;;7.10;;
70301;SDS011;57706;56.326;43.882;2023-04-02T09:19:29;10.23;;;6.25;;
70301;SDS011;57706;56.326;43.882;2023-04-02T09:24:30;11.88;;;5.90;;
70301;SDS011;57706;56.326;43.882;2023-04-02T09:26:57;11.73;;;6.13;;
70301;SDS011;57706;56.326;43.882;2023-04-02T09:29:44;9.15;;;6.00;;
70301;SDS011;57706;56.326;43.882;2023-04-02T09:35:04;9.73;;;5.60;;
70301;SDS011;57706;56.326;43.882;2023-04-02T09:37:32;10.93;;;6.20;;
70301;SDS011;57706;56.326;43.882;2023-04-02T09:45:28;9.88;;;6.13;;
70301;SDS011;57706;56.326;43.882;2023-04-02T09:47:54;12.85;;;6.10;;
70301;SDS011;57706;56.326;43.882;2023-04-02T09:50:31;9.07;;;6.10;;
70301;SDS011;57706;56.326;43.882;2023-04-02T09:52:58;10.15;;;6.28;;
70301;SDS011;57706;56.326;43.882;2023-04-02T09:56:05;16.50;;;7.45;;
70301;SDS011;57706;56.326;43.882;2023-04-02T09:58:36;12.35;;;7.85;;
70301;SDS011;57706;56.326;43.882;2023-04-02T10:01:02;12.65;;;7.00;;
70301;SDS011;57706;56.326;43.882;2023-04-02T10:03:32;10.68;;;7.18;;
70301;SDS011;57706;56.326;43.882;2023-04-02T10:06:06;9.15;;;6.43;;
70301;SDS011;57706;56.326;43.882;2023-04-02T10:08:34;13.68;;;8.15;;
70301;SDS011;57706;56.326;43.882;2023-04-02T10:11:01;12.57;;;7.45;;
70301;SDS011;57706;56.326;43.882;2023-04-02T10:13:32;10.48;;;6.90;;
70301;SDS011;57706;56.326;43.882;2023-04-02T10:16:06;12.57;;;7.05;;
70301;SDS011;57706;56.326;43.882;2023-04-02T10:21:05;15.85;;;8.85;;
70301;SDS011;57706;56.326;43.882;2023-04-02T10:23:34;16.60;;;8.52;;
70301;SDS011;57706;56.326;43.882;2023-04-02T10:29:22;11.05;;;6.57;;
70301;SDS011;57706;56.326;43.882;2023-04-02T10:34:34;13.98;;;6.50;;
70301;SDS011;57706;56.326;43.882;2023-04-02T10:43:20;9.65;;;5.55;;
70301;SDS011;57706;56.326;43.882;2023-04-02T10:48:32;10.43;;;6.13;;
70301;SDS011;57706;56.326;43.882;2023-04-02T10:51:05;11.55;;;5.88;;
70301;SDS011;57706;56.326;43.882;2023-04-02T10:53:45;10.90;;;6.63;;
70301;SDS011;57706;56.326;43.882;2023-04-02T10:56:17;11.38;;;7.22;;
70301;SDS011;57706;56.326;43.882;2023-04-02T10:58:50;12.50;;;6.85;;
70301;SDS011;57706;56.326;43.882;2023-04-02T11:01:28;9.15;;;6.38;;
70301;SDS011;57706;56.326;43.882;2023-04-02T11:03:58;10.77;;;6.50;;
70301;SDS011;57706;56.326;43.882;2023-04-02T11:06:29;14.02;;;6.60;;
70301;SDS011;57706;56.326;43.882;2023-04-02T11:09:02;17.45;;;7.45;;
70301;SDS011;57706;56.326;43.882;2023-04-02T11:11:41;11.52;;;6.80;;
70301;SDS011;57706;56.326;43.882;2023-04-02T11:16:49;13.18;;;6.07;;
70301;SDS011;57706;56.326;43.882;2023-04-02T11:21:44;14.48;;;6.80;;
70301;SDS011;57706;56.326;43.882;2023-04-02T11:32:24;14.50;;;6.55;;
70301;SDS011;57706;56.326;43.882;2023-04-02T11:37:32;16.00;;;6.90;;
70301;SDS011;57706;56.326;43.882;2023-04-02T11:40:00;13.10;;;6.80;;
70301;SDS011;57706;56.326;43.882;2023-04-02T11:42:31;8.25;;;5.43;;
70301;SDS011;57706;56.326;43.882;2023-04-02T11:52:54;10.57;;;6.40;;
70301;SDS011;57706;56.326;43.882;2023-04-02T11:55:27;12.50;;;7.00;;
70301;SDS011;57706;56.326;43.882;2023-04-02T12:00:51;16.05;;;7.15;;
70301;SDS011;57706;56.326;43.882;2023-04-02T12:03:35;10.27;;;5.95;;
70301;SDS011;57706;56.326;43.882;2023-04-02T12:11:57;15.95;;;6.10;;
70301;SDS011;57706;56.326;43.882;2023-04-02T12:14:30;10.50;;;5.85;;
70301;SDS011;57706;56.326;43.882;2023-04-02T12:17:03;10.63;;;5.68;;
70301;SDS011;57706;56.326;43.882;2023-04-02T12:19:38;10.80;;;5.38;;
70301;SDS011;57706;56.326;43.882;2023-04-02T12:22:04;7.82;;;4.72;;
70301;SDS011;57706;56.326;43.882;2023-04-02T12:24:30;8.65;;;5.13;;
70301;SDS011;57706;56.326;43.882;2023-04-02T12:29:42;9.35;;;4.55;;
70301;SDS011;57706;56.326;43.882;2023-04-02T12:32:23;7.47;;;4.80;;
70301;SDS011;57706;56.326;43.882;2023-04-02T12:34:54;10.25;;;4.55;;
70301;SDS011;57706;56.326;43.882;2023-04-02T12:37:25;9.05;;;5.00;;
70301;SDS011;57706;56.326;43.882;2023-04-02T12:39:54;13.18;;;5.47;;
70301;SDS011;57706;56.326;43.882;2023-04-02T12:44:55;10.57;;;4.82;;
70301;SDS011;57706;56.326;43.882;2023-04-02T12:47:21;9.18;;;5.30;;
70301;SDS011;57706;56.326;43.882;2023-04-02T12:49:47;7.22;;;4.93;;
70301;SDS011;57706;56.326;43.882;2023-04-02T12:52:14;9.48;;;5.10;;
70301;SDS011;57706;56.326;43.882;2023-04-02T12:54:50;14.32;;;4.70;;
70301;SDS011;57706;56.326;43.882;2023-04-02T12:59:55;10.63;;;5.60;;
70301;SDS011;57706;56.326;43.882;2023-04-02T13:02:30;19.10;;;5.68;;
70301;SDS011;57706;56.326;43.882;2023-04-02T13:05:08;19.75;;;5.68;;
70301;SDS011;57706;56.326;43.882;2023-04-02T13:07:34;10.48;;;5.20;;
70301;SDS011;57706;56.326;43.882;2023-04-02T13:10:01;7.57;;;4.65;;
70301;SDS011;57706;56.326;43.882;2023-04-02T13:12:38;11.63;;;5.40;;
70301;SDS011;57706;56.326;43.882;2023-04-02T13:15:06;8.73;;;5.05;;
70301;SDS011;57706;56.326;43.882;2023-04-02T13:17:45;9.80;;;6.55;;
70301;SDS011;57706;56.326;43.882;2023-04-02T13:22:57;9.65;;;5.43;;
70301;SDS011;57706;56.326;43.882;2023-04-02T13:25:29;15.68;;;5.78;;
70301;SDS011;57706;56.326;43.882;2023-04-02T13:30:23;11.93;;;5.20;;
70301;SDS011;57706;56.326;43.882;2023-04-02T13:32:50;9.32;;;5.20;;
70301;SDS011;57706;56.326;43.882;2023-04-02T13:35:16;7.07;;;4.43;;
70301;SDS011;57706;56.326;43.882;2023-04-02T13:37:42;10.43;;;5.20;;
70301;SDS011;57706;56.326;43.882;2023-04-02T13:40:11;10.55;;;5.22;;
70301;SDS011;57706;56.326;43.882;2023-04-02T13:42:39;11.02;;;5.85;;
70301;SDS011;57706;56.326;43.882;2023-04-02T13:45:23;10.15;;;5.60;;
70301;SDS011;57706;56.326;43.882;2023-04-02T13:47:50;11.35;;;5.10;;
70301;SDS011;57706;56.326;43.882;2023-04-02T13:50:17;8.88;;;4.97;;
70301;SDS011;57706;56.326;43.882;2023-04-02T13:52:45;15.98;;;5.43;;
70301;SDS011;57706;56.326;43.882;2023-04-02T13:55:12;11.25;;;5.53;;
70301;SDS011;57706;56.326;43.882;2023-04-02T13:57:39;8.35;;;5.50;;
70301;SDS011;57706;56.326;43.882;2023-04-02T14:00:05;6.55;;;4.72;;
70301;SDS011;57706;56.326;43.882;2023-04-02T14:02:32;14.70;;;5.35;;
70301;SDS011;57706;56.326;43.882;2023-04-02T14:05:02;8.48;;;5.05;;
70301;SDS011;57706;56.326;43.882;2023-04-02T14:07:47;8.13;;;5.30;;
70301;SDS011;57706;56.326;43.882;2023-04-02T14:10:38;11.02;;;4.97;;
70301;SDS011;57706;56.326;43.882;2023-04-02T14:21:41;9.80;;;4.93;;
70301;SDS011;57706;56.326;43.882;2023-04-02T14:24:35;9.38;;;5.32;;
70301;SDS011;57706;56.326;43.882;2023-04-02T14:27:17;19.88;;;5.35;;
70301;SDS011;57706;56.326;43.882;2023-04-02T14:32:42;10.35;;;5.35;;
70301;SDS011;57706;56.326;43.882;2023-04-02T14:35:40;13.30;;;7.22;;
70301;SDS011;57706;56.326;43.882;2023-04-02T14:40:47;20.23;;;7.28;;
70301;SDS011;57706;56.326;43.882;2023-04-02T14:46:04;13.15;;;6.53;;
70301;SDS011;57706;56.326;43.882;2023-04-02T14:48:43;15.55;;;7.20;;
70301;SDS011;57706;56.326;43.882;2023-04-02T14:54:14;13.98;;;6.80;;
70301;SDS011;57706;56.326;43.882;2023-04-02T14:56:49;17.50;;;7.32;;
70301;SDS011;57706;56.326;43.882;2023-04-02T14:59:24;25.83;;;7.00;;
70301;SDS011;57706;56.326;43.882;2023-04-02T15:02:02;17.33;;;7.00;;
70301;SDS011;57706;56.326;43.882;2023-04-02T15:04:38;19.60;;;7.85;;
70301;SDS011;57706;56.326;43.882;2023-04-02T15:07:12;14.68;;;7.47;;
70301;SDS011;57706;56.326;43.882;2023-04-02T15:09:45;13.98;;;7.32;;
70301;SDS011;57706;56.326;43.882;2023-04-02T15:15:01;14.05;;;6.97;;
70301;SDS011;57706;56.326;43.882;2023-04-02T15:20:12;15.70;;;7.20;;
70301;SDS011;57706;56.326;43.882;2023-04-02T15:22:50;18.15;;;7.40;;
70301;SDS011;57706;56.326;43.882;2023-04-02T15:28:20;21.83;;;7.82;;
70301;SDS011;57706;56.326;43.882;2023-04-02T15:30:54;14.90;;;7.68;;
70301;SDS011;57706;56.326;43.882;2023-04-02T15:38:43;19.92;;;8.38;;
70301;SDS011;57706;56.326;43.882;2023-04-02T15:41:19;21.98;;;8.98;;
70301;SDS011;57706;56.326;43.882;2023-04-02T16:11:32;17.63;;;8.93;;
70301;SDS011;57706;56.326;43.882;2023-04-02T16:16:45;22.67;;;9.20;;
70301;SDS011;57706;56.326;43.882;2023-04-02T16:24:29;21.35;;;9.68;;
70301;SDS011;57706;56.326;43.882;2023-04-02T16:57:17;26.40;;;12.18;;
70301;SDS011;57706;56.326;43.882;2023-04-02T17:05:24;33.05;;;12.15;;
70301;SDS011;57706;56.326;43.882;2023-04-02T17:08:41;30.25;;;12.25;;
70301;SDS011;57706;56.326;43.882;2023-04-02T17:14:00;45.53;;;14.75;;
70301;SDS011;57706;56.326;43.882;2023-04-02T17:19:11;33.97;;;13.30;;
70301;SDS011;57706;56.326;43.882;2023-04-02T17:21:41;32.13;;;12.93;;
70301;SDS011;57706;56.326;43.882;2023-04-02T17:26:50;30.20;;;12.90;;
70301;SDS011;57706;56.326;43.882;2023-04-02T17:29:37;25.50;;;13.32;;
70301;SDS011;57706;56.326;43.882;2023-04-02T17:32:09;41.45;;;14.52;;
70301;SDS011;57706;56.326;43.882;2023-04-02T17:34:44;39.53;;;13.38;;
70301;SDS011;57706;56.326;43.882;2023-04-02T17:37:24;31.27;;;13.45;;
70301;SDS011;57706;56.326;43.882;2023-04-02T17:45:52;41.70;;;13.52;;
70301;SDS011;57706;56.326;43.882;2023-04-02T17:48:39;38.88;;;15.02;;
70301;SDS011;57706;56.326;43.882;2023-04-02T17:54:18;51.35;;;17.70;;
70301;SDS011;57706;56.326;43.882;2023-04-02T17:57:17;38.95;;;15.02;;
70301;SDS011;57706;56.326;43.882;2023-04-02T18:05:33;43.03;;;16.75;;
70301;SDS011;57706;56.326;43.882;2023-04-02T18:08:09;43.63;;;17.10;;
70301;SDS011;57706;56.326;43.882;2023-04-02T18:14:04;56.75;;;18.80;;
70301;SDS011;57706;56.326;43.882;2023-04-02T18:19:52;47.88;;;19.13;;
70301;SDS011;57706;56.326;43.882;2023-04-02T18:44:13;36.22;;;15.65;;
70301;SDS011;57706;56.326;43.882;2023-04-02T18:49:22;35.92;;;13.73;;
70301;SDS011;57706;56.326;43.882;2023-04-02T18:52:03;46.72;;;16.25;;
70301;SDS011;57706;56.326;43.882;2023-04-02T18:57:12;36.10;;;12.85;;
70301;SDS011;57706;56.326;43.882;2023-04-02T19:00:04;35.42;;;15.38;;
70301;SDS011;57706;56.326;43.882;2023-04-02T19:02:47;37.40;;;14.85;;
70301;SDS011;57706;56.326;43.882;2023-04-02T19:08:15;33.85;;;13.45;;
70301;SDS011;57706;56.326;43.882;2023-04-02T19:10:44;38.50;;;13.48;;
70301;SDS011;57706;56.326;43.882;2023-04-02T19:13:16;29.13;;;12.38;;
70301;SDS011;57706;56.326;43.882;2023-04-02T19:35:21;22.17;;;11.32;;
70301;SDS011;57706;56.326;43.882;2023-04-02T19:37:59;21.73;;;10.52;;
70301;SDS011;57706;56.326;43.882;2023-04-02T19:43:21;21.00;;;11.25;;
70301;SDS011;57706;56.326;43.882;2023-04-02T19:45:47;24.50;;;11.02;;
70301;SDS011;57706;56.326;43.882;2023-04-02T19:50:45;29.83;;;10.88;;
70301;SDS011;57706;56.326;43.882;2023-04-02T19:53:13;32.03;;;11.68;;
70301;SDS011;57706;56.326;43.882;2023-04-02T19:55:40;26.90;;;10.95;;
70301;SDS011;57706;56.326;43.882;2023-04-02T19:58:11;22.10;;;10.85;;
70301;SDS011;57706;56.326;43.882;2023-04-02T20:00:45;23.85;;;10.55;;
70301;SDS011;57706;56.326;43.882;2023-04-02T20:03:10;32.10;;;10.63;;
70301;SDS011;57706;56.326;43.882;2023-04-02T20:05:36;36.83;;;16.88;;
70301;SDS011;57706;56.326;43.882;2023-04-02T20:08:02;27.45;;;11.88;;
70301;SDS011;57706;56.326;43.882;2023-04-02T20:10:28;21.95;;;11.75;;
70301;SDS011;57706;56.326;43.882;2023-04-02T20:12:54;19.13;;;10.82;;
70301;SDS011;57706;56.326;43.882;2023-04-02T20:15:20;27.63;;;11.07;;
70301;SDS011;57706;56.326;43.882;2023-04-02T20:17:47;22.25;;;11.07;;
70301;SDS011;57706;56.326;43.882;2023-04-02T20:20:13;28.25;;;11.23;;
70301;SDS011;57706;56.326;43.882;2023-04-02T20:22:40;31.75;;;11.77;;
70301;SDS011;57706;56.326;43.882;2023-04-02T20:25:07;22.75;;;10.13;;
70301;SDS011;57706;56.326;43.882;2023-04-02T20:27:33;21.02;;;10.75;;
70301;SDS011;57706;56.326;43.882;2023-04-02T20:29:59;26.35;;;13.38;;
70301;SDS011;57706;56.326;43.882;2023-04-02T20:32:25;26.90;;;12.70;;
70301;SDS011;57706;56.326;43.882;2023-04-02T20:34:51;24.17;;;12.65;;
70301;SDS011;57706;56.326;43.882;2023-04-02T20:37:18;26.33;;;13.30;;
70301;SDS011;57706;56.326;43.882;2023-04-02T20:39:44;30.17;;;13.23;;
70301;SDS011;57706;56.326;43.882;2023-04-02T20:42:10;25.25;;;13.55;;
70301;SDS011;57706;56.326;43.882;2023-04-02T20:44:38;29.20;;;13.68;;
70301;SDS011;57706;56.326;43.882;2023-04-02T20:47:05;28.42;;;13.88;;
70301;SDS011;57706;56.326;43.882;2023-04-02T20:49:32;33.53;;;14.32;;
70301;SDS011;57706;56.326;43.882;2023-04-02T20:51:58;29.08;;;13.95;;
70301;SDS011;57706;56.326;43.882;2023-04-02T20:54:24;32.35;;;14.32;;
70301;SDS011;57706;56.326;43.882;2023-04-02T20:56:50;31.27;;;14.32;;
70301;SDS011;57706;56.326;43.882;2023-04-02T20:59:16;31.05;;;13.32;;
70301;SDS011;57706;56.326;43.882;2023-04-02T21:01:42;29.55;;;13.70;;
70301;SDS011;57706;56.326;43.882;2023-04-02T21:04:11;33.17;;;15.30;;
70301;SDS011;57706;56.326;43.882;2023-04-02T21:06:38;42.03;;;16.65;;
70301;SDS011;57706;56.326;43.882;2023-04-02T21:09:15;38.30;;;16.10;;
70301;SDS011;57706;56.326;43.882;2023-04-02T21:11:42;29.58;;;13.93;;
70301;SDS011;57706;56.326;43.882;2023-04-02T21:14:09;39.40;;;15.32;;
70301;SDS011;57706;56.326;43.882;2023-04-02T21:16:35;34.30;;;14.80;;
70301;SDS011;57706;56.326;43.882;2023-04-02T21:19:02;33.08;;;15.52;;